Time;durP1;ratioP1;P1;durP2;ratioP2;P2;SDS_P1;SDS_P2;PMS_P1;PMS_P2;Temp;Humidity;BMP_temperature;BMP_pressure;BME280_temperature;BME280_humidity;BME280_pressure;Samples;Min_cycle;Max_cycle;Signal;HPM_P1;HPM_P2
2022/03/27 00:02:22;;;;;;;0.45;0.45;;;11.80;50.90;;;11.20;37.28;96012.94;5050067;28;20216;-86
2022/03/27 00:04:49;;;;;;;0.50;0.50;;;11.70;50.80;;;11.23;37.47;96024.91;5046970;28;20768;-86
2022/03/27 00:07:16;;;;;;;0.55;0.55;;;11.70;51.00;;;11.17;37.33;96015.06;5024249;28;20196;-85
2022/03/27 00:09:43;;;;;;;0.50;0.50;;;11.70;51.00;;;11.11;37.66;95999.97;5033636;28;20212;-86
2022/03/27 00:12:10;;;;;;;0.57;0.57;;;11.70;51.00;;;11.26;37.33;96023.75;5037157;28;20616;-85
2022/03/27 00:14:38;;;;;;;0.50;0.50;;;11.80;51.30;;;11.24;37.69;96023.91;5033380;28;20224;-85
2022/03/27 00:17:05;;;;;;;0.50;0.50;;;11.70;51.10;;;11.25;37.53;96017.66;5033271;28;20270;-85
2022/03/27 00:19:32;;;;;;;0.50;0.50;;;11.70;51.40;;;11.28;37.66;96012.09;5033909;28;20282;-86
2022/03/27 00:21:59;;;;;;;0.60;0.60;;;11.80;51.30;;;11.37;37.74;96015.50;5051603;28;20662;-85
2022/03/27 00:24:27;;;;;;;0.70;0.70;;;11.80;51.30;;;11.40;37.68;96024.84;5056122;28;20300;-85
2022/03/27 00:26:55;;;;;;;0.50;0.50;;;11.80;51.40;;;11.44;37.63;96019.09;5056104;28;20186;-86
2022/03/27 00:29:22;;;;;;;0.50;0.50;;;11.80;51.40;;;11.47;37.61;96007.41;5072736;28;20206;-86
2022/03/27 00:31:49;;;;;;;0.50;0.50;;;11.90;51.60;;;11.50;37.91;96012.34;5054033;28;20257;-86
2022/03/27 00:34:21;;;;;;;0.50;0.50;;;11.90;51.50;;;11.47;37.46;96004.78;5049849;28;20231;-85
2022/03/27 00:36:49;;;;;;;0.50;0.50;;;11.90;51.50;;;11.60;37.70;96025.28;5069683;28;20203;-86
2022/03/27 00:39:17;;;;;;;0.55;0.55;;;12.00;51.70;;;11.63;37.30;96017.03;5071608;28;20223;-86
2022/03/27 00:41:44;;;;;;;0.50;0.50;;;12.10;51.60;;;11.60;37.27;96001.63;5044603;28;20200;-85
2022/03/27 00:44:11;;;;;;;0.63;0.63;;;12.10;51.50;;;11.68;37.33;96019.97;5036030;28;20680;-86
2022/03/27 00:46:39;;;;;;;0.70;0.70;;;12.10;51.40;;;11.71;37.38;96016.19;5049009;28;20278;-86
2022/03/27 00:49:06;;;;;;;0.70;0.70;;;12.10;51.20;;;11.72;37.29;96007.31;5016013;28;20316;-86
2022/03/27 00:51:33;;;;;;;0.50;0.50;;;12.10;51.20;;;11.72;37.44;96017.81;5048561;28;20196;-85
2022/03/27 00:54:00;;;;;;;0.50;0.50;;;12.10;51.30;;;11.73;37.27;96011.56;5058059;28;20295;-85
2022/03/27 00:56:27;;;;;;;0.60;0.60;;;12.10;51.10;;;11.73;37.56;96019.47;5069001;28;20191;-85
2022/03/27 00:58:54;;;;;;;0.60;0.60;;;12.20;51.30;;;11.62;37.32;95997.00;5052162;28;20215;-86
2022/03/27 01:01:32;;;;;;;0.55;0.55;;;12.20;51.20;;;11.70;37.21;96004.84;5052144;28;20265;-86
2022/03/27 01:03:59;;;;;;;0.60;0.60;;;12.20;51.20;;;11.74;37.29;96011.38;5042807;28;20223;-86
2022/03/27 01:06:38;;;;;;;0.60;0.60;;;12.20;51.20;;;11.72;36.93;96008.13;5052368;28;20192;-86
2022/03/27 01:11:55;;;;;;;0.70;0.70;;;12.20;51.10;;;11.72;37.33;96009.94;5061295;28;20653;-85
2022/03/27 01:14:33;;;;;;;0.50;0.50;;;12.20;51.10;;;11.69;37.29;96013.72;5055690;28;20217;-86
2022/03/27 01:17:09;;;;;;;0.50;0.50;;;12.20;51.20;;;11.74;37.20;96016.66;5055284;28;20310;-86
2022/03/27 01:19:42;;;;;;;0.50;0.50;;;12.20;51.10;;;11.72;37.28;96020.44;5039810;28;20269;-86
2022/03/27 01:22:11;;;;;;;0.50;0.50;;;12.20;51.20;;;11.69;36.99;96016.34;5047957;28;20304;-86
2022/03/27 01:24:39;;;;;;;0.60;0.60;;;12.20;51.00;;;11.68;37.19;96015.53;5036503;28;20231;-86
2022/03/27 01:27:06;;;;;;;0.50;0.50;;;12.20;50.80;;;11.65;37.02;96009.81;5052408;28;20203;-86
2022/03/27 01:29:34;;;;;;;0.50;0.50;;;12.20;50.80;;;11.63;36.87;96015.25;5039266;28;20228;-86
2022/03/27 01:32:03;;;;;;;0.40;0.40;;;12.20;50.60;;;11.62;36.60;96007.50;5054689;28;20192;-85
2022/03/27 01:34:31;;;;;;;0.50;0.50;;;12.20;50.60;;;11.60;36.96;96006.88;5051591;28;20226;-86
2022/03/27 01:37:08;;;;;;;0.50;0.50;;;12.10;50.50;;;11.55;36.67;96004.75;5067696;28;20214;-86
2022/03/27 01:39:37;;;;;;;0.50;0.50;;;12.10;50.60;;;11.54;36.59;96005.75;5064553;28;20718;-86
2022/03/27 01:42:05;;;;;;;0.60;0.60;;;12.10;50.50;;;11.48;36.67;96003.81;5048594;28;20200;-85
2022/03/27 01:44:33;;;;;;;0.40;0.40;;;12.10;50.50;;;11.48;36.58;96009.06;5031658;28;20686;-86
2022/03/27 01:47:01;;;;;;;0.40;0.40;;;12.10;50.50;;;11.34;36.77;95986.97;5059217;28;20247;-86
2022/03/27 01:49:28;;;;;;;0.50;0.50;;;12.00;50.50;;;11.44;36.98;96013.84;5070212;28;20230;-86
2022/03/27 01:51:57;;;;;;;0.60;0.60;;;12.00;50.50;;;11.38;36.62;95999.56;5055485;28;20226;-86
2022/03/27 01:54:24;;;;;;;0.50;0.50;;;12.00;50.60;;;11.24;37.06;95981.88;5071765;28;20223;-84
2022/03/27 01:56:51;;;;;;;0.50;0.50;;;12.00;50.70;;;11.35;36.90;96004.34;5042516;28;20196;-86
2022/03/27 01:59:21;;;;;;;0.60;0.60;;;11.90;50.60;;;11.17;36.89;95988.81;5065225;28;20265;-85
2022/03/27 02:01:49;;;;;;;0.50;0.50;;;11.90;50.70;;;11.26;37.23;96003.53;5071439;28;20203;-85
2022/03/27 02:04:17;;;;;;;0.50;0.50;;;11.90;50.80;;;11.28;37.08;96006.00;5053396;28;20230;-85
2022/03/27 02:06:44;;;;;;;0.50;0.50;;;11.80;50.80;;;11.18;37.34;96007.03;5068396;28;20218;-86
2022/03/27 02:09:12;;;;;;;0.40;0.40;;;11.80;51.00;;;11.19;37.23;96010.44;5051593;28;20281;-85
2022/03/27 02:11:42;;;;;;;0.47;0.47;;;11.80;51.00;;;11.20;37.23;96012.94;5054567;28;20278;-85
2022/03/27 02:14:10;;;;;;;0.52;0.52;;;11.80;51.00;;;11.17;37.32;96018.50;5071454;28;20219;-85
2022/03/27 02:16:38;;;;;;;0.50;0.50;;;11.80;51.20;;;11.13;37.56;96006.72;5068556;28;20286;-85
2022/03/27 02:19:08;;;;;;;0.70;0.70;;;11.80;51.30;;;11.13;37.70;96011.13;5038460;28;20246;-86
2022/03/27 02:21:41;;;;;;;0.40;0.40;;;11.70;51.40;;;11.14;37.21;96016.22;5020724;28;20208;-85
2022/03/27 02:24:09;;;;;;;0.50;0.50;;;11.70;51.40;;;11.14;37.52;96010.16;5027727;28;20224;-85
2022/03/27 02:26:45;;;;;;;0.50;0.50;;;11.70;51.50;;;11.13;37.59;96024.25;5047879;28;20192;-85
2022/03/27 02:29:14;;;;;;;0.50;0.50;;;11.70;51.70;;;11.10;37.81;96012.28;5033225;28;20220;-86
2022/03/27 02:31:42;;;;;;;0.50;0.50;;;11.70;51.70;;;11.09;38.05;96018.53;5025824;28;20187;-85
2022/03/27 02:34:10;;;;;;;0.50;0.50;;;11.70;51.80;;;11.10;38.16;96017.53;5026205;28;20223;-85
2022/03/27 02:36:37;;;;;;;0.50;0.50;;;11.70;51.80;;;11.10;38.04;96020.16;5051365;28;20192;-85
2022/03/27 02:39:05;;;;;;;0.60;0.60;;;11.70;51.80;;;11.12;38.46;96023.44;5035043;28;20694;-85
2022/03/27 02:41:32;;;;;;;0.52;0.52;;;11.60;51.90;;;11.11;38.28;96024.44;5056808;28;20224;-85
2022/03/27 02:44:00;;;;;;;0.60;0.60;;;11.70;52.10;;;11.09;38.49;96013.28;5052647;28;20279;-85
2022/03/27 02:46:27;;;;;;;0.60;0.60;;;11.60;52.20;;;11.13;38.37;96027.72;5018606;28;20232;-86
2022/03/27 02:48:54;;;;;;;0.60;0.60;;;11.60;52.20;;;11.09;38.36;96013.28;5034295;28;20224;-86
2022/03/27 02:51:22;;;;;;;0.40;0.40;;;11.60;52.20;;;11.15;38.56;96023.09;5034981;28;20223;-86
2022/03/27 02:53:50;;;;;;;0.60;0.60;;;11.60;52.30;;;11.03;38.48;95999.03;5050681;28;20528;-86
2022/03/27 02:56:17;;;;;;;0.50;0.50;;;11.70;52.60;;;11.08;38.59;96009.00;5054978;28;20191;-85
2022/03/27 02:58:44;;;;;;;0.50;0.50;;;11.70;52.60;;;11.20;38.60;96020.81;5038126;28;20370;-85
2022/03/27 03:01:12;;;;;;;0.50;0.50;;;11.70;52.70;;;11.21;38.56;96024.25;5054000;28;20259;-85
2022/03/27 03:03:42;;;;;;;0.50;0.50;;;11.70;52.70;;;11.25;38.64;96027.34;5043166;28;20242;-86
2022/03/27 03:06:09;;;;;;;0.47;0.47;;;11.70;52.60;;;11.16;38.74;96002.94;5058215;28;20694;-85
2022/03/27 03:08:38;;;;;;;0.40;0.40;;;11.70;52.80;;;11.28;38.43;96022.59;5056948;28;20207;-85
2022/03/27 03:11:06;;;;;;;0.40;0.40;;;11.70;52.70;;;11.29;38.88;96018.97;5053742;28;20662;-86
2022/03/27 03:13:34;;;;;;;0.68;0.68;;;11.70;52.90;;;11.28;39.14;96013.88;5037488;28;20797;-85
2022/03/27 03:16:03;;;;;;;0.50;0.50;;;11.80;53.00;;;11.34;38.93;96023.72;5037809;28;20561;-86
2022/03/27 03:18:34;;;;;;;0.40;0.40;;;11.80;53.00;;;11.38;38.81;96027.66;5037855;28;20697;-86
2022/03/27 03:21:02;;;;;;;0.40;0.40;;;11.80;52.80;;;11.39;38.76;96034.53;5036994;28;20207;-85
2022/03/27 03:23:29;;;;;;;0.50;0.50;;;11.80;52.90;;;11.39;38.91;96031.91;5037356;28;20204;-85
2022/03/27 03:25:56;;;;;;;0.43;0.43;;;11.80;53.00;;;11.37;38.93;96021.56;5037242;28;20304;-85
2022/03/27 03:28:35;;;;;;;0.50;0.50;;;11.80;52.90;;;11.43;38.70;96032.41;5049259;28;20211;-85
2022/03/27 03:31:02;;;;;;;0.60;0.60;;;11.90;53.00;;;11.37;39.30;96021.56;5021183;28;20191;-86
2022/03/27 03:33:31;;;;;;;0.50;0.50;;;11.90;53.30;;;11.35;39.17;96017.47;5053769;28;20223;-86
2022/03/27 03:35:58;;;;;;;0.40;0.40;;;11.90;53.40;;;11.44;39.17;96029.59;5053758;28;20294;-85
2022/03/27 03:38:26;;;;;;;0.50;0.50;;;11.90;53.50;;;11.47;39.05;96028.44;5069808;28;20266;-86
2022/03/27 03:40:53;;;;;;;0.50;0.50;;;11.90;53.50;;;11.46;39.27;96027.63;5056476;28;20374;-85
2022/03/27 03:43:20;;;;;;;0.50;0.50;;;11.90;53.50;;;11.47;39.25;96026.63;5040726;28;20591;-86
2022/03/27 03:45:48;;;;;;;0.40;0.40;;;11.90;53.50;;;11.47;39.16;96028.44;5057085;28;20696;-86
2022/03/27 03:48:16;;;;;;;0.50;0.50;;;12.00;53.70;;;11.48;38.88;96030.88;5057290;28;20195;-86
2022/03/27 03:50:43;;;;;;;0.50;0.50;;;12.00;53.80;;;11.39;39.29;96010.91;5068074;28;20289;-86
2022/03/27 03:53:10;;;;;;;0.50;0.50;;;11.90;53.60;;;11.46;39.48;96032.88;5056623;28;20234;-86
2022/03/27 03:55:38;;;;;;;0.50;0.50;;;12.00;53.90;;;11.47;39.62;96029.25;5056902;28;20191;-86
2022/03/27 03:58:06;;;;;;;0.50;0.50;;;12.00;53.80;;;11.48;39.63;96033.50;5069083;28;20191;-86
2022/03/27 04:00:33;;;;;;;0.70;0.70;;;12.00;53.80;;;11.37;39.52;96018.13;5068030;28;20251;-86
2022/03/27 04:03:00;;;;;;;0.55;0.55;;;12.00;53.90;;;11.48;39.47;96040.59;5049958;28;20197;-85
2022/03/27 04:05:27;;;;;;;0.57;0.57;;;12.00;53.80;;;11.45;39.27;96028.63;5020026;28;20228;-85
2022/03/27 04:07:54;;;;;;;0.50;0.50;;;11.90;53.60;;;11.48;39.25;96043.22;5056709;28;20577;-85
2022/03/27 04:10:21;;;;;;;0.50;0.50;;;12.00;53.70;;;11.47;39.35;96042.38;5060146;28;20218;-86
2022/03/27 04:12:49;;;;;;;0.50;0.50;;;12.00;53.60;;;11.49;39.08;96045.66;5036624;28;20241;-86
2022/03/27 04:15:16;;;;;;;0.60;0.60;;;12.00;53.70;;;11.45;39.00;96044.38;5036418;28;20216;-86
2022/03/27 04:17:47;;;;;;;0.50;0.50;;;11.90;53.70;;;11.50;39.08;96049.94;5033305;28;20219;-86
2022/03/27 04:20:15;;;;;;;0.50;0.50;;;12.00;53.90;;;11.50;39.05;96051.75;5019055;28;20228;-85
2022/03/27 04:22:43;;;;;;;0.40;0.40;;;12.00;53.90;;;11.50;39.44;96051.75;5036357;28;20291;-86
2022/03/27 04:25:12;;;;;;;0.50;0.50;;;12.00;54.10;;;11.50;39.27;96051.75;5033079;28;20959;-86
2022/03/27 04:27:40;;;;;;;0.50;0.50;;;12.00;54.00;;;11.50;38.82;96057.81;5065870;28;20674;-85
2022/03/27 04:30:09;;;;;;;0.43;0.43;;;12.00;54.00;;;11.52;39.48;96058.47;5050022;28;20269;-86
2022/03/27 04:32:38;;;;;;;0.60;0.60;;;11.90;54.00;;;11.54;39.34;96063.56;5052745;28;20231;-86
2022/03/27 04:35:09;;;;;;;0.50;0.50;;;12.00;54.10;;;11.51;39.45;96062.09;5070338;28;20211;-85
2022/03/27 04:37:43;;;;;;;0.50;0.50;;;12.00;54.10;;;11.50;39.31;96059.63;5039373;28;20213;-85
2022/03/27 04:40:13;;;;;;;0.50;0.50;;;12.00;54.40;;;11.48;39.49;96067.66;5059636;28;20226;-85
2022/03/27 04:42:42;;;;;;;0.52;0.52;;;12.00;54.20;;;11.44;39.56;96065.56;5054086;28;20626;-86
2022/03/27 04:45:11;;;;;;;0.50;0.50;;;12.00;54.30;;;11.45;39.53;96064.56;5056195;28;20227;-85
2022/03/27 04:47:39;;;;;;;0.47;0.47;;;11.90;54.20;;;11.43;39.45;96069.97;5051965;28;20233;-86
2022/03/27 04:50:08;;;;;;;0.40;0.40;;;12.10;54.40;;;11.44;39.38;96071.63;5052540;28;20314;-86
2022/03/27 04:52:37;;;;;;;0.57;0.57;;;11.90;54.30;;;11.43;39.46;96083.13;5052229;28;20192;-86
2022/03/27 04:55:05;;;;;;;0.50;0.50;;;11.90;54.50;;;11.45;39.32;96083.78;5064846;28;20248;-86
2022/03/27 04:57:38;;;;;;;0.43;0.43;;;11.90;54.40;;;11.41;39.64;96073.78;5038640;28;20225;-86
2022/03/27 05:00:15;;;;;;;0.47;0.47;;;11.90;54.70;;;11.48;39.55;96082.63;5036393;28;20242;-86
2022/03/27 05:02:43;;;;;;;0.50;0.50;;;11.90;54.60;;;11.50;39.51;96078.03;5016610;28;20601;-86
2022/03/27 05:05:12;;;;;;;0.60;0.60;;;11.90;54.50;;;11.50;39.41;96080.66;5015800;28;20232;-86
2022/03/27 05:07:41;;;;;;;0.50;0.50;;;11.90;54.50;;;11.52;39.26;96084.75;5027975;28;20287;-87
2022/03/27 05:10:11;;;;;;;0.50;0.50;;;11.90;54.50;;;11.54;39.39;96080.13;5052136;28;20211;-85
2022/03/27 05:12:39;;;;;;;0.40;0.40;;;12.00;54.70;;;11.53;39.42;96083.75;5035462;28;20203;-86
2022/03/27 05:15:09;;;;;;;0.40;0.40;;;12.00;54.60;;;11.58;39.45;96083.22;5051727;28;20251;-86
2022/03/27 05:17:51;;;;;;;0.50;0.50;;;12.00;54.80;;;11.57;39.61;96080.78;5051305;28;20661;-86
2022/03/27 05:20:18;;;;;;;0.40;0.40;;;12.00;55.40;;;11.58;39.60;96085.06;5050830;28;20219;-87
2022/03/27 05:22:46;;;;;;;0.70;0.70;;;12.00;55.00;;;11.57;39.71;96080.78;5048816;28;20299;-85
2022/03/27 05:25:15;;;;;;;0.40;0.40;;;12.00;56.30;;;11.59;39.60;96094.59;5031754;28;20282;-85
2022/03/27 05:27:58;;;;;;;0.50;0.50;;;12.00;55.10;;;11.56;40.04;96093.13;5033972;28;20223;-85
2022/03/27 05:30:27;;;;;;;0.55;0.55;;;12.00;55.80;;;11.52;40.01;96082.13;5019530;28;20219;-86
2022/03/27 05:32:55;;;;;;;0.47;0.47;;;12.00;55.50;;;11.53;40.07;96086.41;5052099;28;20410;-86
2022/03/27 05:35:23;;;;;;;0.40;0.40;;;12.00;55.50;;;11.60;40.46;96088.34;5068592;28;20302;-86
2022/03/27 05:37:52;;;;;;;0.60;0.60;;;12.10;55.80;;;11.58;40.22;96087.69;5051400;28;20236;-85
2022/03/27 05:40:21;;;;;;;0.40;0.40;;;12.10;56.00;;;11.64;40.35;96089.63;5068580;28;20226;-85
2022/03/27 05:42:50;;;;;;;0.50;0.50;;;12.10;56.30;;;11.66;40.23;96092.91;5068119;28;20237;-85
2022/03/27 05:45:19;;;;;;;0.50;0.50;;;12.10;56.30;;;11.68;40.50;96089.13;5051844;28;20864;-85
2022/03/27 05:47:46;;;;;;;0.40;0.40;;;12.10;56.40;;;11.73;40.62;96093.06;5068401;28;20188;-86
2022/03/27 05:50:18;;;;;;;0.50;0.50;;;12.10;56.30;;;11.75;40.38;96097.13;5038335;28;20257;-85
2022/03/27 05:52:46;;;;;;;0.50;0.50;;;12.10;56.30;;;11.80;40.39;96096.63;5031693;28;20226;-86
2022/03/27 05:55:14;;;;;;;0.50;0.50;;;12.20;56.40;;;11.89;40.18;96110.56;5034820;28;20246;-85
2022/03/27 05:57:42;;;;;;;0.50;0.50;;;12.10;56.30;;;11.89;40.70;96113.19;5050519;28;20553;-85
2022/03/27 06:00:12;;;;;;;0.52;0.52;;;12.20;56.40;;;11.87;40.26;96110.75;5033689;28;20239;-85
2022/03/27 06:02:43;;;;;;;0.50;0.50;;;12.20;56.40;;;11.87;40.29;96112.56;5050758;28;20231;-86
2022/03/27 06:05:11;;;;;;;0.50;0.50;;;12.30;56.00;;;11.82;40.15;96107.81;5070215;28;20233;-86
2022/03/27 06:07:46;;;;;;;0.50;0.50;;;12.20;55.90;;;11.88;40.15;96116.81;5057895;28;20199;-85
2022/03/27 06:10:16;;;;;;;0.50;0.50;;;12.30;56.50;;;11.89;40.23;96118.44;5038500;28;20227;-86
2022/03/27 06:12:44;;;;;;;0.50;0.50;;;12.20;56.10;;;11.87;40.29;96118.63;5055169;28;20237;-85
2022/03/27 06:15:12;;;;;;;0.50;0.50;;;12.30;56.20;;;11.89;40.31;96116.66;5071144;28;20230;-85
2022/03/27 06:17:42;;;;;;;0.50;0.50;;;12.30;56.00;;;11.90;40.17;96117.47;5055448;28;20191;-87
2022/03/27 06:20:13;;;;;;;0.68;0.68;;;12.30;56.20;;;11.93;40.47;96119.78;5056072;28;20291;-86
2022/03/27 06:22:41;;;;;;;0.50;0.50;;;12.30;57.70;;;11.95;40.36;96123.03;5045611;28;20298;-86
2022/03/27 06:25:11;;;;;;;0.50;0.50;;;12.30;56.00;;;11.97;40.29;96123.72;5041813;28;20230;-86
2022/03/27 06:27:39;;;;;;;0.50;0.50;;;12.30;55.90;;;12.01;40.11;96125.84;5045835;28;20207;-86
2022/03/27 06:30:09;;;;;;;0.43;0.43;;;12.30;55.80;;;12.06;40.11;96129.75;5038703;28;20215;-86
2022/03/27 06:32:37;;;;;;;0.50;0.50;;;12.40;55.90;;;12.06;40.17;96122.72;5038608;28;20199;-86
2022/03/27 06:35:06;;;;;;;0.60;0.60;;;12.40;55.70;;;12.11;39.82;96128.28;5039337;28;20215;-86
2022/03/27 06:37:34;;;;;;;0.70;0.70;;;12.40;55.70;;;12.13;40.31;96123.66;5049954;28;20680;-86
2022/03/27 06:40:03;;;;;;;0.60;0.60;;;12.40;55.70;;;12.20;40.17;96125.59;5054840;28;20215;-86
2022/03/27 06:42:31;;;;;;;0.50;0.50;;;12.50;56.00;;;12.22;40.06;96127.06;5037371;28;20223;-86
2022/03/27 06:44:58;;;;;;;0.50;0.50;;;12.50;56.00;;;12.25;40.02;96125.91;5054532;28;20243;-86
2022/03/27 06:47:27;;;;;;;0.47;0.47;;;12.50;55.90;;;12.30;40.17;96129.66;5054901;28;20203;-86
2022/03/27 06:49:56;;;;;;;0.50;0.50;;;12.60;56.00;;;12.31;40.13;96123.38;5054441;28;20293;-85
2022/03/27 06:52:26;;;;;;;0.50;0.50;;;12.60;55.90;;;12.40;40.02;96132.09;5071152;28;20191;-85
2022/03/27 06:54:54;;;;;;;0.50;0.50;;;12.60;55.90;;;12.44;40.09;96130.72;5052011;28;20698;-86
2022/03/27 06:57:22;;;;;;;0.50;0.50;;;12.70;56.00;;;12.52;40.08;96139.56;5018296;28;20207;-86
2022/03/27 07:05:23;;;;;;;0.50;0.50;;;12.80;56.50;;;12.67;40.26;96145.75;5040178;28;20719;-85
2022/03/27 07:07:57;;;;;;;0.50;0.50;;;12.90;56.50;;;12.75;40.10;96150.13;5038627;28;20187;-85
2022/03/27 07:10:25;;;;;;;0.40;0.40;;;12.90;56.50;;;12.84;40.28;96145.63;5034984;28;20304;-85
2022/03/27 07:12:53;;;;;;;0.40;0.40;;;13.00;57.00;;;12.91;40.26;96149.19;5073559;28;20190;-85
2022/03/27 07:15:21;;;;;;;0.60;0.60;;;13.00;57.20;;;12.98;40.41;96150.94;5056872;28;20289;-84
2022/03/27 07:17:50;;;;;;;0.50;0.50;;;13.10;57.50;;;13.06;40.44;96155.34;5071009;28;20223;-85
2022/03/27 07:20:33;;;;;;;0.50;0.50;;;13.10;57.40;;;13.13;40.55;96151.00;5037942;28;20227;-85
2022/03/27 07:23:04;;;;;;;0.60;0.60;;;13.20;57.50;;;13.21;40.60;96150.13;5037207;28;20270;-85
2022/03/27 07:25:35;;;;;;;0.60;0.60;;;13.30;57.60;;;13.27;40.60;96146.75;5037122;28;20393;-86
2022/03/27 07:28:04;;;;;;;0.47;0.47;;;13.30;57.60;;;13.29;40.88;96142.16;5036821;28;20188;-84
2022/03/27 07:30:32;;;;;;;0.47;0.47;;;13.40;57.70;;;13.43;40.92;96145.81;5037906;28;20254;-84
2022/03/27 07:33:01;;;;;;;0.60;0.60;;;13.50;57.80;;;13.42;41.18;96143.38;5053360;28;20196;-83
2022/03/27 07:35:30;;;;;;;0.43;0.43;;;13.50;57.90;;;13.54;41.50;96155.13;5037073;28;20219;-84
2022/03/27 07:37:58;;;;;;;0.52;0.52;;;13.60;58.00;;;13.60;41.53;96150.97;5033461;28;20202;-85
2022/03/27 07:40:25;;;;;;;0.40;0.40;;;13.70;58.00;;;13.64;41.46;96148.78;5065740;28;20228;-85
2022/03/27 07:42:54;;;;;;;0.52;0.52;;;13.80;58.10;;;13.69;41.65;96146.41;5033170;28;20661;-85
2022/03/27 07:45:24;;;;;;;0.60;0.60;;;13.80;58.10;;;13.82;41.72;96157.16;5017043;28;20227;-85
2022/03/27 07:47:53;;;;;;;0.60;0.60;;;13.80;58.40;;;13.94;41.76;96157.53;5043612;28;20660;-85
2022/03/27 07:50:23;;;;;;;0.57;0.57;;;14.00;58.60;;;14.04;41.85;96159.88;5045330;28;20219;-85
2022/03/27 07:52:51;;;;;;;0.60;0.60;;;14.00;58.80;;;14.01;41.83;96139.97;5052735;28;20196;-85
2022/03/27 07:55:22;;;;;;;0.40;0.40;;;14.10;58.60;;;14.24;41.85;96153.06;5047543;28;20215;-84
2022/03/27 07:57:55;;;;;;;0.50;0.50;;;14.10;58.50;;;14.35;41.87;96156.22;5034360;28;20188;-83
2022/03/27 08:00:23;;;;;;;0.70;0.70;;;14.30;58.70;;;14.33;41.79;96140.56;5054953;28;20680;-84
2022/03/27 08:02:51;;;;;;;0.45;0.45;;;14.30;58.70;;;14.54;41.69;96160.09;5070220;28;20186;-85
2022/03/27 08:05:21;;;;;;;0.50;0.50;;;14.40;58.80;;;14.61;41.67;96149.59;5019256;28;20310;-84
2022/03/27 08:07:49;;;;;;;0.50;0.50;;;14.50;58.90;;;14.71;41.85;96158.09;5052537;28;20192;-84
2022/03/27 08:10:16;;;;;;;0.60;0.60;;;14.60;59.00;;;14.68;42.04;96137.31;5051776;28;20305;-84
2022/03/27 08:12:46;;;;;;;0.50;0.50;;;14.70;59.10;;;14.80;41.50;96148.22;5036219;28;20199;-84
2022/03/27 08:15:14;;;;;;;0.50;0.50;;;14.70;59.10;;;14.97;41.59;96149.59;5040650;28;20229;-84
2022/03/27 08:17:51;;;;;;;0.40;0.40;;;14.80;59.20;;;15.05;41.49;96152.13;5069791;28;20195;-84
2022/03/27 08:20:19;;;;;;;0.40;0.40;;;14.90;59.30;;;15.13;41.52;96153.81;5067308;28;20249;-84
2022/03/27 08:22:46;;;;;;;0.40;0.40;;;15.00;59.40;;;15.15;41.58;96154.44;5068820;28;20259;-85
2022/03/27 08:26:55;;;;;;;0.52;0.52;;;15.00;59.20;;;15.21;41.53;96153.69;5044752;28;20646;-84
2022/03/27 08:28:00;;;;;;;0.50;0.50;;;15.10;59.10;;;15.23;41.38;96142.09;5065471;28;20243;-86
2022/03/27 08:30:27;;;;;;;0.50;0.50;;;15.20;59.10;;;15.42;41.17;96165.25;5067856;28;20230;-86
2022/03/27 08:32:54;;;;;;;0.60;0.60;;;15.30;59.00;;;15.52;41.41;96156.97;5052089;28;20213;-86
2022/03/27 08:35:23;;;;;;;0.50;0.50;;;15.30;58.90;;;15.59;41.29;96149.91;5019816;28;20219;-86
2022/03/27 08:37:50;;;;;;;0.40;0.40;;;15.50;59.10;;;15.77;41.16;96159.16;5052334;28;20195;-85
2022/03/27 08:40:20;;;;;;;0.40;0.40;;;15.50;58.80;;;15.88;41.09;96145.44;5032413;28;20219;-86
2022/03/27 08:42:47;;;;;;;0.40;0.40;;;15.70;58.80;;;15.89;40.93;96131.19;5032042;28;20304;-85
2022/03/27 08:45:14;;;;;;;0.40;0.40;;;15.70;58.90;;;16.02;41.00;96141.03;5030277;28;20227;-84
2022/03/27 08:47:47;;;;;;;0.50;0.50;;;15.80;58.80;;;16.15;40.88;96154.34;5051961;28;20260;-84
2022/03/27 08:50:55;;;;;;;0.50;0.50;;;15.90;58.70;;;16.24;40.79;96160.28;5042425;28;20227;-84
2022/03/27 08:54:04;;;;;;;0.50;0.50;;;16.00;58.40;;;16.24;40.43;96147.03;5045109;28;20203;-85
2022/03/27 08:56:34;;;;;;;0.50;0.50;;;16.10;58.40;;;16.41;40.09;96154.66;5036113;28;20199;-85
2022/03/27 08:59:07;;;;;;;0.47;0.47;;;16.20;59.70;;;16.51;40.60;96151.66;5066580;28;20719;-86
2022/03/27 09:01:35;;;;;;;0.50;0.50;;;16.30;58.50;;;16.64;40.71;96159.63;5068155;28;20287;-86
2022/03/27 09:04:04;;;;;;;0.40;0.40;;;16.30;58.30;;;16.75;40.54;96168.84;5018995;28;20272;-84
2022/03/27 09:06:31;;;;;;;0.40;0.40;;;16.40;58.10;;;16.80;40.06;96161.91;5051592;28;20227;-85
2022/03/27 09:08:58;;;;;;;0.40;0.40;;;16.50;58.20;;;16.94;40.28;96170.75;5051965;28;20269;-85
2022/03/27 09:11:30;;;;;;;0.40;0.40;;;16.60;58.10;;;17.06;40.12;96173.59;5035333;28;20195;-84
2022/03/27 09:13:58;;;;;;;0.40;0.40;;;16.70;58.20;;;17.17;39.82;96163.44;5034737;28;20298;-84
2022/03/27 09:16:25;;;;;;;0.40;0.40;;;16.80;58.10;;;17.24;40.04;96156.31;5042435;28;20235;-84
2022/03/27 09:19:01;;;;;;;0.40;0.40;;;16.90;58.10;;;17.40;40.04;96163.84;5049146;28;20216;-84
2022/03/27 09:21:28;;;;;;;0.40;0.40;;;17.00;58.00;;;17.45;39.38;96157.94;5051169;28;20691;-84
2022/03/27 09:24:02;;;;;;;0.40;0.40;;;17.10;57.80;;;17.55;40.04;96163.66;5051321;28;20303;-85
2022/03/27 09:26:32;;;;;;;0.40;0.40;;;17.20;57.90;;;17.66;39.57;96158.75;5034610;28;20219;-84
2022/03/27 09:29:10;;;;;;;0.40;0.40;;;17.30;57.60;;;17.74;39.79;96161.19;5051046;28;20227;-84
2022/03/27 09:31:38;;;;;;;0.40;0.40;;;17.40;57.50;;;17.84;39.35;96160.78;5051136;28;20230;-85
2022/03/27 09:34:07;;;;;;;0.40;0.40;;;17.50;57.70;;;17.91;39.45;96157.06;5051488;28;20681;-85
2022/03/27 09:36:42;;;;;;;0.47;0.47;;;17.50;57.60;;;17.97;39.13;96150.16;5056614;28;20257;-85
2022/03/27 09:39:20;;;;;;;0.47;0.47;;;17.60;57.30;;;18.07;39.14;96155.03;5052503;28;20265;-84
2022/03/27 09:42:00;;;;;;;0.32;0.32;;;17.70;57.30;;;18.14;39.28;96150.53;5048929;28;20198;-85
2022/03/27 09:44:36;;;;;;;0.47;0.47;;;17.80;57.20;;;18.16;39.20;96145.84;5035127;28;20266;-85
2022/03/27 09:47:10;;;;;;;0.50;0.50;;;17.90;57.20;;;18.30;39.22;96143.13;5030642;28;20755;-85
2022/03/27 09:49:46;;;;;;;0.30;0.30;;;17.90;57.10;;;18.44;38.73;96154.50;5059192;28;20213;-84
2022/03/27 09:52:19;;;;;;;0.40;0.40;;;18.00;57.10;;;18.56;38.54;96152.81;5042621;28;20202;-85
2022/03/27 09:54:55;;;;;;;0.47;0.47;;;18.10;56.90;;;18.60;38.72;96153.22;5058786;28;20305;-85
2022/03/27 09:57:34;;;;;;;0.40;0.40;;;18.20;56.70;;;18.59;38.16;96156.88;5073715;28;20586;-84
2022/03/27 10:00:19;;;;;;;0.50;0.50;;;18.20;56.30;;;18.60;38.64;96151.34;5058225;28;20253;-84
2022/03/27 10:02:48;;;;;;;0.40;0.40;;;18.30;56.50;;;18.64;38.40;96154.41;5056244;28;20195;-84
2022/03/27 10:05:18;;;;;;;0.40;0.40;;;18.40;56.60;;;18.67;38.22;96151.34;5043419;28;20214;-85
2022/03/27 10:07:47;;;;;;;0.40;0.40;;;18.40;56.30;;;18.58;38.71;96137.50;5041585;28;20224;-84
2022/03/27 10:10:20;;;;;;;0.40;0.40;;;18.40;56.40;;;18.71;38.21;96150.72;5058094;28;20215;-85
2022/03/27 10:12:52;;;;;;;0.40;0.40;;;18.50;57.60;;;18.79;38.38;96154.16;5049236;28;20242;-84
2022/03/27 10:15:28;;;;;;;0.40;0.40;;;18.60;56.50;;;18.87;38.63;96154.72;5055130;28;20273;-85
2022/03/27 10:18:05;;;;;;;0.50;0.50;;;18.60;56.50;;;19.00;38.25;96145.84;5081742;28;20202;-85
2022/03/27 10:20:36;;;;;;;0.43;0.43;;;18.60;57.80;;;19.15;38.62;96142.06;5043237;28;20227;-85
2022/03/27 10:23:10;;;;;;;0.43;0.43;;;18.70;56.40;;;19.19;38.40;96137.97;5054588;28;20195;-83
2022/03/27 10:25:44;;;;;;;0.40;0.40;;;18.80;56.30;;;19.23;38.25;96136.50;5054428;28;20285;-84
2022/03/27 10:28:12;;;;;;;0.50;0.50;;;18.90;56.10;;;19.11;38.16;96140.88;5038036;28;20719;-84
2022/03/27 10:30:41;;;;;;;0.40;0.40;;;18.90;55.90;;;19.01;37.60;96136.03;5048044;28;20196;-84
2022/03/27 10:33:10;;;;;;;0.40;0.40;;;18.90;55.60;;;18.90;37.76;96139.38;5063326;28;20199;-83
2022/03/27 10:36:06;;;;;;;0.40;0.40;;;18.90;55.50;;;18.73;38.16;96134.53;5054071;28;20219;-84
2022/03/27 10:38:59;;;;;;;0.40;0.40;;;18.80;55.30;;;18.60;38.27;96131.97;5022384;28;20226;-85
2022/03/27 10:41:57;;;;;;;0.40;0.40;;;18.70;55.30;;;18.55;38.48;96137.91;5039359;28;20206;-85